748  
SXUS55 KMSO 190523  
OSOMSO  
MONTANA AWOS SUMMARY  
NATIONAL WEATHER SERVICE MISSOULA MT  
1123 PM MDT FRI AUG 18 2017  
 
MONTANA AWOS REPORTS  
 
LAUREL |K6S8 190515Z AUTO 00000KT 40SM 21/M01 A2991 RMK AO1 T02111005  
 
CLICK HERE TO GO TO PREVIOUS BULLETINS.

The Nexlab MT Page
The Nexlab ID Page Main Text Page